sensor_id;sensor_type;location;lat;lon;timestamp;temperature;humidity
16881;DHT22;8557;52.068;5.198;2023-02-14T00:02:27;4.50;99.90
16881;DHT22;8557;52.068;5.198;2023-02-14T00:04:53;4.50;99.90
16881;DHT22;8557;52.068;5.198;2023-02-14T00:07:20;4.50;99.90
16881;DHT22;8557;52.068;5.198;2023-02-14T00:09:47;4.50;99.90
16881;DHT22;8557;52.068;5.198;2023-02-14T00:12:14;4.50;99.90
16881;DHT22;8557;52.068;5.198;2023-02-14T00:14:40;4.40;99.90
16881;DHT22;8557;52.068;5.198;2023-02-14T00:17:27;4.40;99.90
16881;DHT22;8557;52.068;5.198;2023-02-14T00:19:53;4.40;99.90
16881;DHT22;8557;52.068;5.198;2023-02-14T00:22:20;4.40;99.90
16881;DHT22;8557;52.068;5.198;2023-02-14T00:24:47;4.30;99.90
16881;DHT22;8557;52.068;5.198;2023-02-14T00:27:14;4.30;99.90
16881;DHT22;8557;52.068;5.198;2023-02-14T00:29:41;4.20;99.90
16881;DHT22;8557;52.068;5.198;2023-02-14T00:32:07;4.30;99.90
16881;DHT22;8557;52.068;5.198;2023-02-14T00:34:35;4.20;99.90
16881;DHT22;8557;52.068;5.198;2023-02-14T00:37:03;4.20;99.90
16881;DHT22;8557;52.068;5.198;2023-02-14T00:39:29;4.10;99.90
16881;DHT22;8557;52.068;5.198;2023-02-14T00:41:56;4.10;99.90
16881;DHT22;8557;52.068;5.198;2023-02-14T00:44:23;4.10;99.90
16881;DHT22;8557;52.068;5.198;2023-02-14T00:46:50;4.10;99.90
16881;DHT22;8557;52.068;5.198;2023-02-14T00:49:17;4.10;99.90
16881;DHT22;8557;52.068;5.198;2023-02-14T00:51:45;4.00;99.90
16881;DHT22;8557;52.068;5.198;2023-02-14T00:54:12;4.00;99.90
16881;DHT22;8557;52.068;5.198;2023-02-14T00:56:39;3.90;99.90
16881;DHT22;8557;52.068;5.198;2023-02-14T00:59:05;3.90;99.90
16881;DHT22;8557;52.068;5.198;2023-02-14T01:01:32;3.90;99.90
16881;DHT22;8557;52.068;5.198;2023-02-14T01:03:59;3.80;99.90
16881;DHT22;8557;52.068;5.198;2023-02-14T01:06:26;3.80;99.90
16881;DHT22;8557;52.068;5.198;2023-02-14T01:08:54;3.70;99.90
16881;DHT22;8557;52.068;5.198;2023-02-14T01:11:22;3.70;99.90
16881;DHT22;8557;52.068;5.198;2023-02-14T01:13:50;3.70;99.90
16881;DHT22;8557;52.068;5.198;2023-02-14T01:16:20;3.60;99.90
16881;DHT22;8557;52.068;5.198;2023-02-14T01:18:48;3.60;99.90
16881;DHT22;8557;52.068;5.198;2023-02-14T01:21:17;3.60;99.90
16881;DHT22;8557;52.068;5.198;2023-02-14T01:23:46;3.60;99.90
16881;DHT22;8557;52.068;5.198;2023-02-14T01:26:15;3.70;99.90
16881;DHT22;8557;52.068;5.198;2023-02-14T01:28:42;3.70;99.90
16881;DHT22;8557;52.068;5.198;2023-02-14T01:31:12;3.70;99.90
16881;DHT22;8557;52.068;5.198;2023-02-14T01:33:41;3.70;99.90
16881;DHT22;8557;52.068;5.198;2023-02-14T01:36:15;3.70;99.90
16881;DHT22;8557;52.068;5.198;2023-02-14T01:38:42;3.70;99.90
16881;DHT22;8557;52.068;5.198;2023-02-14T01:41:09;3.60;99.90
16881;DHT22;8557;52.068;5.198;2023-02-14T01:43:54;3.60;99.90
16881;DHT22;8557;52.068;5.198;2023-02-14T01:46:21;3.60;99.90
16881;DHT22;8557;52.068;5.198;2023-02-14T01:48:50;3.60;99.90
16881;DHT22;8557;52.068;5.198;2023-02-14T01:51:19;3.60;99.90
16881;DHT22;8557;52.068;5.198;2023-02-14T01:53:46;3.60;99.90
16881;DHT22;8557;52.068;5.198;2023-02-14T01:56:18;3.60;99.90
16881;DHT22;8557;52.068;5.198;2023-02-14T01:58:51;3.60;99.90
16881;DHT22;8557;52.068;5.198;2023-02-14T02:01:19;3.60;99.90
16881;DHT22;8557;52.068;5.198;2023-02-14T02:03:49;3.60;99.90
16881;DHT22;8557;52.068;5.198;2023-02-14T02:06:20;3.60;99.90
16881;DHT22;8557;52.068;5.198;2023-02-14T02:08:54;3.60;99.90
16881;DHT22;8557;52.068;5.198;2023-02-14T02:11:24;3.60;99.90
16881;DHT22;8557;52.068;5.198;2023-02-14T02:13:53;3.70;99.90
16881;DHT22;8557;52.068;5.198;2023-02-14T02:16:41;3.70;99.90
16881;DHT22;8557;52.068;5.198;2023-02-14T02:19:45;3.70;99.90
16881;DHT22;8557;52.068;5.198;2023-02-14T02:22:41;3.60;99.90
16881;DHT22;8557;52.068;5.198;2023-02-14T02:25:25;3.60;99.90
16881;DHT22;8557;52.068;5.198;2023-02-14T02:28:26;3.60;99.90
16881;DHT22;8557;52.068;5.198;2023-02-14T02:31:27;3.50;99.90
16881;DHT22;8557;52.068;5.198;2023-02-14T02:34:27;3.50;99.90
16881;DHT22;8557;52.068;5.198;2023-02-14T02:37:14;3.40;99.90
16881;DHT22;8557;52.068;5.198;2023-02-14T02:39:57;3.40;99.90
16881;DHT22;8557;52.068;5.198;2023-02-14T02:42:35;3.50;99.90
16881;DHT22;8557;52.068;5.198;2023-02-14T02:45:12;3.40;99.90
16881;DHT22;8557;52.068;5.198;2023-02-14T02:47:44;3.40;99.90
16881;DHT22;8557;52.068;5.198;2023-02-14T02:50:21;3.40;99.90
16881;DHT22;8557;52.068;5.198;2023-02-14T02:53:15;3.40;99.90
16881;DHT22;8557;52.068;5.198;2023-02-14T02:55:46;3.30;99.90
16881;DHT22;8557;52.068;5.198;2023-02-14T02:58:35;3.40;99.90
16881;DHT22;8557;52.068;5.198;2023-02-14T03:01:08;3.30;99.90
16881;DHT22;8557;52.068;5.198;2023-02-14T03:03:36;3.30;99.90
16881;DHT22;8557;52.068;5.198;2023-02-14T03:06:23;3.30;99.90
16881;DHT22;8557;52.068;5.198;2023-02-14T03:08:51;3.30;99.90
16881;DHT22;8557;52.068;5.198;2023-02-14T03:11:18;3.30;99.90
16881;DHT22;8557;52.068;5.198;2023-02-14T03:14:06;3.30;99.90
16881;DHT22;8557;52.068;5.198;2023-02-14T03:16:43;3.30;99.90
16881;DHT22;8557;52.068;5.198;2023-02-14T03:19:43;3.30;99.90
16881;DHT22;8557;52.068;5.198;2023-02-14T03:22:43;3.30;99.90
16881;DHT22;8557;52.068;5.198;2023-02-14T03:25:30;3.40;99.90
16881;DHT22;8557;52.068;5.198;2023-02-14T03:28:11;3.40;99.90
16881;DHT22;8557;52.068;5.198;2023-02-14T03:30:46;3.40;99.90
16881;DHT22;8557;52.068;5.198;2023-02-14T03:33:18;3.40;99.90
16881;DHT22;8557;52.068;5.198;2023-02-14T03:35:53;3.50;99.90
16881;DHT22;8557;52.068;5.198;2023-02-14T03:38:25;3.50;99.90
16881;DHT22;8557;52.068;5.198;2023-02-14T03:40:57;3.50;99.90
16881;DHT22;8557;52.068;5.198;2023-02-14T03:43:27;3.50;99.90
16881;DHT22;8557;52.068;5.198;2023-02-14T03:46:00;3.50;99.90
16881;DHT22;8557;52.068;5.198;2023-02-14T03:48:30;3.50;99.90
16881;DHT22;8557;52.068;5.198;2023-02-14T03:50:58;3.60;99.90
16881;DHT22;8557;52.068;5.198;2023-02-14T03:53:27;3.60;99.90
16881;DHT22;8557;52.068;5.198;2023-02-14T03:56:01;3.50;99.90
16881;DHT22;8557;52.068;5.198;2023-02-14T03:58:31;3.50;99.90
16881;DHT22;8557;52.068;5.198;2023-02-14T04:01:03;3.50;99.90
16881;DHT22;8557;52.068;5.198;2023-02-14T04:03:32;3.40;99.90
16881;DHT22;8557;52.068;5.198;2023-02-14T04:06:00;3.40;99.90
16881;DHT22;8557;52.068;5.198;2023-02-14T04:08:28;3.40;99.90
16881;DHT22;8557;52.068;5.198;2023-02-14T04:10:59;3.40;99.90
16881;DHT22;8557;52.068;5.198;2023-02-14T04:13:27;3.40;99.90
16881;DHT22;8557;52.068;5.198;2023-02-14T04:15:54;3.40;99.90
16881;DHT22;8557;52.068;5.198;2023-02-14T04:18:21;3.30;99.90
16881;DHT22;8557;52.068;5.198;2023-02-14T04:21:05;3.20;99.90
16881;DHT22;8557;52.068;5.198;2023-02-14T04:23:32;3.10;99.90
16881;DHT22;8557;52.068;5.198;2023-02-14T04:26:00;2.90;99.90
16881;DHT22;8557;52.068;5.198;2023-02-14T04:28:28;2.80;99.90
16881;DHT22;8557;52.068;5.198;2023-02-14T04:30:55;2.80;99.90
16881;DHT22;8557;52.068;5.198;2023-02-14T04:33:21;2.80;99.90
16881;DHT22;8557;52.068;5.198;2023-02-14T04:35:48;2.80;99.90
16881;DHT22;8557;52.068;5.198;2023-02-14T04:38:15;2.80;99.90
16881;DHT22;8557;52.068;5.198;2023-02-14T04:40:42;2.70;99.90
16881;DHT22;8557;52.068;5.198;2023-02-14T04:43:10;2.70;99.90
16881;DHT22;8557;52.068;5.198;2023-02-14T04:45:36;2.70;99.90
16881;DHT22;8557;52.068;5.198;2023-02-14T04:48:03;2.70;99.90
16881;DHT22;8557;52.068;5.198;2023-02-14T04:50:30;2.80;99.90
16881;DHT22;8557;52.068;5.198;2023-02-14T04:52:57;2.80;99.90
16881;DHT22;8557;52.068;5.198;2023-02-14T04:55:24;2.80;99.90
16881;DHT22;8557;52.068;5.198;2023-02-14T04:57:50;2.80;99.90
16881;DHT22;8557;52.068;5.198;2023-02-14T05:00:19;2.80;99.90
16881;DHT22;8557;52.068;5.198;2023-02-14T05:02:46;2.80;99.90
16881;DHT22;8557;52.068;5.198;2023-02-14T05:05:13;2.80;99.90
16881;DHT22;8557;52.068;5.198;2023-02-14T05:07:40;2.80;99.90
16881;DHT22;8557;52.068;5.198;2023-02-14T05:10:12;2.90;99.90
16881;DHT22;8557;52.068;5.198;2023-02-14T05:12:38;2.90;99.90
16881;DHT22;8557;52.068;5.198;2023-02-14T05:15:06;2.90;99.90
16881;DHT22;8557;52.068;5.198;2023-02-14T05:17:34;2.90;99.90
16881;DHT22;8557;52.068;5.198;2023-02-14T05:20:02;2.90;99.90
16881;DHT22;8557;52.068;5.198;2023-02-14T05:22:29;3.00;99.90
16881;DHT22;8557;52.068;5.198;2023-02-14T05:24:55;3.10;99.90
16881;DHT22;8557;52.068;5.198;2023-02-14T05:27:22;3.10;99.90
16881;DHT22;8557;52.068;5.198;2023-02-14T05:29:49;3.10;99.90
16881;DHT22;8557;52.068;5.198;2023-02-14T05:32:16;3.10;99.90
16881;DHT22;8557;52.068;5.198;2023-02-14T05:34:44;3.00;99.90
16881;DHT22;8557;52.068;5.198;2023-02-14T05:37:10;3.00;99.90
16881;DHT22;8557;52.068;5.198;2023-02-14T05:39:37;3.00;99.90
16881;DHT22;8557;52.068;5.198;2023-02-14T05:42:04;2.90;99.90
16881;DHT22;8557;52.068;5.198;2023-02-14T05:44:31;2.80;99.90
16881;DHT22;8557;52.068;5.198;2023-02-14T05:46:58;2.80;99.90
16881;DHT22;8557;52.068;5.198;2023-02-14T05:49:24;2.60;99.90
16881;DHT22;8557;52.068;5.198;2023-02-14T05:51:53;2.60;99.90
16881;DHT22;8557;52.068;5.198;2023-02-14T05:54:19;2.60;99.90
16881;DHT22;8557;52.068;5.198;2023-02-14T05:56:46;2.50;99.90
16881;DHT22;8557;52.068;5.198;2023-02-14T05:59:13;2.40;99.90
16881;DHT22;8557;52.068;5.198;2023-02-14T06:01:40;2.40;99.90
16881;DHT22;8557;52.068;5.198;2023-02-14T06:04:06;2.50;99.90
16881;DHT22;8557;52.068;5.198;2023-02-14T06:06:33;2.40;99.90
16881;DHT22;8557;52.068;5.198;2023-02-14T06:09:01;2.30;99.90
16881;DHT22;8557;52.068;5.198;2023-02-14T06:11:28;2.30;99.90
16881;DHT22;8557;52.068;5.198;2023-02-14T06:13:55;2.30;99.90
16881;DHT22;8557;52.068;5.198;2023-02-14T06:16:22;2.30;99.90
16881;DHT22;8557;52.068;5.198;2023-02-14T06:18:48;2.30;99.90
16881;DHT22;8557;52.068;5.198;2023-02-14T06:21:15;2.30;99.90
16881;DHT22;8557;52.068;5.198;2023-02-14T06:23:42;2.30;99.90
16881;DHT22;8557;52.068;5.198;2023-02-14T06:26:10;2.40;99.90
16881;DHT22;8557;52.068;5.198;2023-02-14T06:28:37;2.50;99.90
16881;DHT22;8557;52.068;5.198;2023-02-14T06:31:04;2.60;99.90
16881;DHT22;8557;52.068;5.198;2023-02-14T06:33:31;2.50;99.90
16881;DHT22;8557;52.068;5.198;2023-02-14T06:35:57;2.60;99.90
16881;DHT22;8557;52.068;5.198;2023-02-14T06:38:24;2.60;99.90
16881;DHT22;8557;52.068;5.198;2023-02-14T06:40:51;2.70;99.90
16881;DHT22;8557;52.068;5.198;2023-02-14T06:43:19;2.70;99.90
16881;DHT22;8557;52.068;5.198;2023-02-14T06:45:46;2.70;99.90
16881;DHT22;8557;52.068;5.198;2023-02-14T06:48:13;2.70;99.90
16881;DHT22;8557;52.068;5.198;2023-02-14T06:50:39;2.70;99.90
16881;DHT22;8557;52.068;5.198;2023-02-14T06:53:06;2.70;99.90
16881;DHT22;8557;52.068;5.198;2023-02-14T06:55:33;2.70;99.90
16881;DHT22;8557;52.068;5.198;2023-02-14T06:58:00;2.60;99.90
16881;DHT22;8557;52.068;5.198;2023-02-14T07:00:28;2.50;99.90
16881;DHT22;8557;52.068;5.198;2023-02-14T07:02:55;2.40;99.90
16881;DHT22;8557;52.068;5.198;2023-02-14T07:05:21;2.40;99.90
16881;DHT22;8557;52.068;5.198;2023-02-14T07:07:48;2.30;99.90
16881;DHT22;8557;52.068;5.198;2023-02-14T07:10:15;2.30;99.90
16881;DHT22;8557;52.068;5.198;2023-02-14T07:12:42;2.40;99.90
16881;DHT22;8557;52.068;5.198;2023-02-14T07:15:10;2.40;99.90
16881;DHT22;8557;52.068;5.198;2023-02-14T07:17:39;2.40;99.90
16881;DHT22;8557;52.068;5.198;2023-02-14T07:20:07;2.40;99.90
16881;DHT22;8557;52.068;5.198;2023-02-14T07:22:35;2.50;99.90
16881;DHT22;8557;52.068;5.198;2023-02-14T07:25:02;2.60;99.90
16881;DHT22;8557;52.068;5.198;2023-02-14T07:27:29;2.80;99.90
16881;DHT22;8557;52.068;5.198;2023-02-14T07:29:56;2.80;99.90
16881;DHT22;8557;52.068;5.198;2023-02-14T07:32:23;2.90;99.90
16881;DHT22;8557;52.068;5.198;2023-02-14T07:34:51;2.80;99.90
16881;DHT22;8557;52.068;5.198;2023-02-14T07:37:18;2.80;99.90
16881;DHT22;8557;52.068;5.198;2023-02-14T07:39:45;2.90;99.90
16881;DHT22;8557;52.068;5.198;2023-02-14T07:42:12;3.00;99.90
16881;DHT22;8557;52.068;5.198;2023-02-14T07:44:39;3.00;99.90
16881;DHT22;8557;52.068;5.198;2023-02-14T07:47:07;3.10;99.90
16881;DHT22;8557;52.068;5.198;2023-02-14T07:49:34;3.20;99.90
16881;DHT22;8557;52.068;5.198;2023-02-14T07:52:03;3.20;99.90
16881;DHT22;8557;52.068;5.198;2023-02-14T07:54:29;3.30;99.90
16881;DHT22;8557;52.068;5.198;2023-02-14T07:56:56;3.30;99.90
16881;DHT22;8557;52.068;5.198;2023-02-14T07:59:23;3.30;99.90
16881;DHT22;8557;52.068;5.198;2023-02-14T08:01:50;3.40;99.90
16881;DHT22;8557;52.068;5.198;2023-02-14T08:04:17;3.50;99.90
16881;DHT22;8557;52.068;5.198;2023-02-14T08:06:44;3.60;99.90
16881;DHT22;8557;52.068;5.198;2023-02-14T08:09:12;3.60;99.90
16881;DHT22;8557;52.068;5.198;2023-02-14T08:11:49;3.70;99.90
16881;DHT22;8557;52.068;5.198;2023-02-14T08:14:33;3.70;99.90
16881;DHT22;8557;52.068;5.198;2023-02-14T08:17:00;3.70;99.90
16881;DHT22;8557;52.068;5.198;2023-02-14T08:19:27;3.80;99.90
16881;DHT22;8557;52.068;5.198;2023-02-14T08:21:54;3.80;99.90
16881;DHT22;8557;52.068;5.198;2023-02-14T08:24:22;3.90;99.90
16881;DHT22;8557;52.068;5.198;2023-02-14T08:26:49;3.90;99.90
16881;DHT22;8557;52.068;5.198;2023-02-14T08:29:16;4.00;99.90
16881;DHT22;8557;52.068;5.198;2023-02-14T08:31:43;4.00;99.90
16881;DHT22;8557;52.068;5.198;2023-02-14T08:34:11;4.10;99.90
16881;DHT22;8557;52.068;5.198;2023-02-14T08:36:39;4.20;99.90
16881;DHT22;8557;52.068;5.198;2023-02-14T08:39:06;4.20;99.90
16881;DHT22;8557;52.068;5.198;2023-02-14T08:41:35;4.20;99.90
16881;DHT22;8557;52.068;5.198;2023-02-14T08:44:02;4.30;99.90
16881;DHT22;8557;52.068;5.198;2023-02-14T08:46:28;4.40;99.90
16881;DHT22;8557;52.068;5.198;2023-02-14T08:48:55;4.40;99.90
16881;DHT22;8557;52.068;5.198;2023-02-14T08:51:22;4.50;99.90
16881;DHT22;8557;52.068;5.198;2023-02-14T08:53:50;4.60;99.90
16881;DHT22;8557;52.068;5.198;2023-02-14T08:56:17;4.60;99.90
16881;DHT22;8557;52.068;5.198;2023-02-14T08:58:51;4.70;99.90
16881;DHT22;8557;52.068;5.198;2023-02-14T09:01:17;4.70;99.90
16881;DHT22;8557;52.068;5.198;2023-02-14T09:03:44;4.90;99.90
16881;DHT22;8557;52.068;5.198;2023-02-14T09:06:13;5.00;99.90
16881;DHT22;8557;52.068;5.198;2023-02-14T09:08:42;5.20;99.90
16881;DHT22;8557;52.068;5.198;2023-02-14T09:11:10;5.20;99.90
16881;DHT22;8557;52.068;5.198;2023-02-14T09:13:38;5.20;99.90
16881;DHT22;8557;52.068;5.198;2023-02-14T09:16:08;5.30;99.90
16881;DHT22;8557;52.068;5.198;2023-02-14T09:18:35;5.30;99.90
16881;DHT22;8557;52.068;5.198;2023-02-14T09:21:06;5.50;99.90
16881;DHT22;8557;52.068;5.198;2023-02-14T09:23:33;5.70;99.90
16881;DHT22;8557;52.068;5.198;2023-02-14T09:26:00;5.70;99.90
16881;DHT22;8557;52.068;5.198;2023-02-14T09:28:28;5.70;99.90
16881;DHT22;8557;52.068;5.198;2023-02-14T09:30:54;5.70;99.90
16881;DHT22;8557;52.068;5.198;2023-02-14T09:33:24;5.90;99.90
16881;DHT22;8557;52.068;5.198;2023-02-14T09:35:52;6.10;99.90
16881;DHT22;8557;52.068;5.198;2023-02-14T09:38:36;6.20;99.90
16881;DHT22;8557;52.068;5.198;2023-02-14T09:41:05;6.30;99.90
16881;DHT22;8557;52.068;5.198;2023-02-14T09:43:35;6.40;99.90
16881;DHT22;8557;52.068;5.198;2023-02-14T09:46:07;6.50;99.90
16881;DHT22;8557;52.068;5.198;2023-02-14T09:48:41;6.60;99.90
16881;DHT22;8557;52.068;5.198;2023-02-14T09:51:12;6.60;99.90
16881;DHT22;8557;52.068;5.198;2023-02-14T09:53:43;6.60;99.90
16881;DHT22;8557;52.068;5.198;2023-02-14T09:56:16;6.70;99.90
16881;DHT22;8557;52.068;5.198;2023-02-14T09:58:49;6.70;99.90
16881;DHT22;8557;52.068;5.198;2023-02-14T10:01:21;6.80;99.90
16881;DHT22;8557;52.068;5.198;2023-02-14T10:04:15;6.90;99.90
16881;DHT22;8557;52.068;5.198;2023-02-14T10:06:48;7.00;99.90
16881;DHT22;8557;52.068;5.198;2023-02-14T10:12:18;7.20;99.90
16881;DHT22;8557;52.068;5.198;2023-02-14T10:14:47;7.40;99.90
16881;DHT22;8557;52.068;5.198;2023-02-14T10:17:17;7.50;99.90
16881;DHT22;8557;52.068;5.198;2023-02-14T10:19:51;7.60;99.90
16881;DHT22;8557;52.068;5.198;2023-02-14T10:22:22;7.70;99.90
16881;DHT22;8557;52.068;5.198;2023-02-14T10:24:55;7.80;99.90
16881;DHT22;8557;52.068;5.198;2023-02-14T10:27:29;7.90;99.90
16881;DHT22;8557;52.068;5.198;2023-02-14T10:29:56;8.00;99.90
16881;DHT22;8557;52.068;5.198;2023-02-14T10:32:28;8.10;99.90
16881;DHT22;8557;52.068;5.198;2023-02-14T10:35:00;8.20;99.90
16881;DHT22;8557;52.068;5.198;2023-02-14T10:37:43;8.40;99.90
16881;DHT22;8557;52.068;5.198;2023-02-14T10:40:33;8.50;99.90
16881;DHT22;8557;52.068;5.198;2023-02-14T10:43:11;8.60;99.90
16881;DHT22;8557;52.068;5.198;2023-02-14T10:45:44;8.60;99.90
16881;DHT22;8557;52.068;5.198;2023-02-14T10:48:18;8.70;99.90
16881;DHT22;8557;52.068;5.198;2023-02-14T10:50:51;9.00;99.90
16881;DHT22;8557;52.068;5.198;2023-02-14T10:53:26;9.10;99.90
16881;DHT22;8557;52.068;5.198;2023-02-14T10:56:01;9.20;99.90
16881;DHT22;8557;52.068;5.198;2023-02-14T10:58:32;9.40;99.90
16881;DHT22;8557;52.068;5.198;2023-02-14T11:01:02;9.50;99.90
16881;DHT22;8557;52.068;5.198;2023-02-14T11:03:32;9.60;99.90
16881;DHT22;8557;52.068;5.198;2023-02-14T11:06:01;9.70;99.90
16881;DHT22;8557;52.068;5.198;2023-02-14T11:08:32;9.80;99.90
16881;DHT22;8557;52.068;5.198;2023-02-14T11:11:02;9.90;99.90
16881;DHT22;8557;52.068;5.198;2023-02-14T11:13:33;10.10;99.90
16881;DHT22;8557;52.068;5.198;2023-02-14T11:16:03;10.00;99.90
16881;DHT22;8557;52.068;5.198;2023-02-14T11:18:31;10.10;99.90
16881;DHT22;8557;52.068;5.198;2023-02-14T11:21:08;10.20;99.90
16881;DHT22;8557;52.068;5.198;2023-02-14T11:23:38;10.30;99.90
16881;DHT22;8557;52.068;5.198;2023-02-14T11:26:10;10.40;99.90
16881;DHT22;8557;52.068;5.198;2023-02-14T11:28:47;10.50;99.90
16881;DHT22;8557;52.068;5.198;2023-02-14T11:31:24;10.60;99.90
16881;DHT22;8557;52.068;5.198;2023-02-14T11:33:51;10.70;99.90
16881;DHT22;8557;52.068;5.198;2023-02-14T11:36:20;10.90;99.90
16881;DHT22;8557;52.068;5.198;2023-02-14T11:38:55;11.00;99.90
16881;DHT22;8557;52.068;5.198;2023-02-14T11:41:23;11.10;99.90
16881;DHT22;8557;52.068;5.198;2023-02-14T11:43:50;11.20;99.90
16881;DHT22;8557;52.068;5.198;2023-02-14T11:46:25;11.30;99.90
16881;DHT22;8557;52.068;5.198;2023-02-14T11:48:57;11.50;99.90
16881;DHT22;8557;52.068;5.198;2023-02-14T11:51:28;11.60;99.90
16881;DHT22;8557;52.068;5.198;2023-02-14T11:53:56;11.70;99.90
16881;DHT22;8557;52.068;5.198;2023-02-14T11:56:43;11.80;99.90
16881;DHT22;8557;52.068;5.198;2023-02-14T11:59:14;11.90;99.90
16881;DHT22;8557;52.068;5.198;2023-02-14T12:01:47;11.90;96.50
16881;DHT22;8557;52.068;5.198;2023-02-14T12:04:18;12.10;90.20
16881;DHT22;8557;52.068;5.198;2023-02-14T12:06:46;12.10;98.50
16881;DHT22;8557;52.068;5.198;2023-02-14T12:09:24;12.20;99.90
16881;DHT22;8557;52.068;5.198;2023-02-14T12:11:54;12.40;88.50
16881;DHT22;8557;52.068;5.198;2023-02-14T12:14:23;12.50;88.10
16881;DHT22;8557;52.068;5.198;2023-02-14T12:16:55;12.70;74.60
16881;DHT22;8557;52.068;5.198;2023-02-14T12:19:31;12.80;53.90
16881;DHT22;8557;52.068;5.198;2023-02-14T12:22:03;12.90;53.70
16881;DHT22;8557;52.068;5.198;2023-02-14T12:24:32;13.00;54.00
16881;DHT22;8557;52.068;5.198;2023-02-14T12:27:05;13.10;48.50
16881;DHT22;8557;52.068;5.198;2023-02-14T12:29:38;13.30;40.90
16881;DHT22;8557;52.068;5.198;2023-02-14T12:32:15;13.40;28.90
16881;DHT22;8557;52.068;5.198;2023-02-14T12:34:43;13.60;34.50
16881;DHT22;8557;52.068;5.198;2023-02-14T12:37:19;13.70;24.30
16881;DHT22;8557;52.068;5.198;2023-02-14T12:40:10;13.90;25.00
16881;DHT22;8557;52.068;5.198;2023-02-14T12:45:44;14.30;15.30
16881;DHT22;8557;52.068;5.198;2023-02-14T12:48:24;14.50;9.70
16881;DHT22;8557;52.068;5.198;2023-02-14T12:50:58;14.50;1.90
16881;DHT22;8557;52.068;5.198;2023-02-14T12:53:45;14.60;9.70
16881;DHT22;8557;52.068;5.198;2023-02-14T12:56:20;14.70;5.30
16881;DHT22;8557;52.068;5.198;2023-02-14T12:58:58;14.80;1.70
16881;DHT22;8557;52.068;5.198;2023-02-14T13:01:39;15.00;6.10
16881;DHT22;8557;52.068;5.198;2023-02-14T13:07:23;15.80;1.00
16881;DHT22;8557;52.068;5.198;2023-02-14T13:09:56;16.60;1.00
16881;DHT22;8557;52.068;5.198;2023-02-14T13:12:32;17.90;4.00
16881;DHT22;8557;52.068;5.198;2023-02-14T13:15:09;19.90;7.10
16881;DHT22;8557;52.068;5.198;2023-02-14T13:17:42;22.30;99.90
16881;DHT22;8557;52.068;5.198;2023-02-14T13:20:30;24.20;99.90
16881;DHT22;8557;52.068;5.198;2023-02-14T13:23:01;25.60;99.90
16881;DHT22;8557;52.068;5.198;2023-02-14T13:25:34;26.60;99.90
16881;DHT22;8557;52.068;5.198;2023-02-14T13:28:05;27.20;99.90
16881;DHT22;8557;52.068;5.198;2023-02-14T13:30:34;27.20;99.90
16881;DHT22;8557;52.068;5.198;2023-02-14T13:33:06;27.20;99.90
16881;DHT22;8557;52.068;5.198;2023-02-14T13:35:33;27.50;99.90
16881;DHT22;8557;52.068;5.198;2023-02-14T13:38:03;27.70;99.90
16881;DHT22;8557;52.068;5.198;2023-02-14T13:40:33;27.30;99.90
16881;DHT22;8557;52.068;5.198;2023-02-14T13:43:02;26.60;99.90
16881;DHT22;8557;52.068;5.198;2023-02-14T13:46:02;26.30;99.90
16881;DHT22;8557;52.068;5.198;2023-02-14T13:48:29;26.40;99.90
16881;DHT22;8557;52.068;5.198;2023-02-14T13:50:58;26.50;99.90
16881;DHT22;8557;52.068;5.198;2023-02-14T13:53:36;27.40;99.90
16881;DHT22;8557;52.068;5.198;2023-02-14T13:56:32;27.20;99.90
16881;DHT22;8557;52.068;5.198;2023-02-14T13:59:02;27.70;99.90
16881;DHT22;8557;52.068;5.198;2023-02-14T14:01:32;27.80;99.90
16881;DHT22;8557;52.068;5.198;2023-02-14T14:04:02;27.90;99.90
16881;DHT22;8557;52.068;5.198;2023-02-14T14:06:31;28.10;99.90
16881;DHT22;8557;52.068;5.198;2023-02-14T14:09:51;28.30;99.90
16881;DHT22;8557;52.068;5.198;2023-02-14T14:12:40;28.50;99.90
16881;DHT22;8557;52.068;5.198;2023-02-14T14:15:18;28.90;99.90
16881;DHT22;8557;52.068;5.198;2023-02-14T14:17:48;28.60;99.90
16881;DHT22;8557;52.068;5.198;2023-02-14T14:20:44;27.40;99.90
16881;DHT22;8557;52.068;5.198;2023-02-14T14:23:33;27.30;99.90
16881;DHT22;8557;52.068;5.198;2023-02-14T14:26:03;27.50;99.90
16881;DHT22;8557;52.068;5.198;2023-02-14T14:28:51;27.50;99.90
16881;DHT22;8557;52.068;5.198;2023-02-14T14:31:20;27.20;99.90
16881;DHT22;8557;52.068;5.198;2023-02-14T14:33:56;26.70;99.90
16881;DHT22;8557;52.068;5.198;2023-02-14T14:36:23;26.10;99.90
16881;DHT22;8557;52.068;5.198;2023-02-14T14:38:51;25.10;99.90
16881;DHT22;8557;52.068;5.198;2023-02-14T14:41:19;24.40;99.90
16881;DHT22;8557;52.068;5.198;2023-02-14T14:43:46;24.70;41.80
16881;DHT22;8557;52.068;5.198;2023-02-14T14:46:14;23.80;1.00
16881;DHT22;8557;52.068;5.198;2023-02-14T14:48:44;22.50;1.00
16881;DHT22;8557;52.068;5.198;2023-02-14T14:51:18;20.90;1.00
16881;DHT22;8557;52.068;5.198;2023-02-14T14:53:50;19.80;1.00
16881;DHT22;8557;52.068;5.198;2023-02-14T14:56:20;19.20;1.00
16881;DHT22;8557;52.068;5.198;2023-02-14T14:58:48;18.70;1.00
16881;DHT22;8557;52.068;5.198;2023-02-14T15:01:30;18.60;1.00
16881;DHT22;8557;52.068;5.198;2023-02-14T15:04:08;17.80;99.90
16881;DHT22;8557;52.068;5.198;2023-02-14T15:06:35;17.30;1.00
16881;DHT22;8557;52.068;5.198;2023-02-14T15:09:11;17.00;1.00
16881;DHT22;8557;52.068;5.198;2023-02-14T15:11:39;16.50;99.90
16881;DHT22;8557;52.068;5.198;2023-02-14T15:14:26;16.00;1.00
16881;DHT22;8557;52.068;5.198;2023-02-14T15:16:57;15.70;1.00
16881;DHT22;8557;52.068;5.198;2023-02-14T15:19:27;15.60;1.00
16881;DHT22;8557;52.068;5.198;2023-02-14T15:21:59;15.30;1.00
16881;DHT22;8557;52.068;5.198;2023-02-14T15:24:26;15.10;99.90
16881;DHT22;8557;52.068;5.198;2023-02-14T15:26:55;15.00;99.90
16881;DHT22;8557;52.068;5.198;2023-02-14T15:29:24;14.80;1.00
16881;DHT22;8557;52.068;5.198;2023-02-14T15:31:51;14.50;1.00
16881;DHT22;8557;52.068;5.198;2023-02-14T15:34:22;14.60;1.00
16881;DHT22;8557;52.068;5.198;2023-02-14T15:36:50;14.80;1.00
16881;DHT22;8557;52.068;5.198;2023-02-14T15:39:24;14.80;1.00
16881;DHT22;8557;52.068;5.198;2023-02-14T15:41:53;14.60;1.00
16881;DHT22;8557;52.068;5.198;2023-02-14T15:44:21;14.20;1.00
16881;DHT22;8557;52.068;5.198;2023-02-14T15:46:53;14.00;1.00
16881;DHT22;8557;52.068;5.198;2023-02-14T15:49:28;13.90;1.00
16881;DHT22;8557;52.068;5.198;2023-02-14T15:51:56;13.70;1.00
16881;DHT22;8557;52.068;5.198;2023-02-14T15:54:32;13.60;1.00
16881;DHT22;8557;52.068;5.198;2023-02-14T15:57:01;13.30;1.00
16881;DHT22;8557;52.068;5.198;2023-02-14T15:59:32;13.20;1.00
16881;DHT22;8557;52.068;5.198;2023-02-14T16:02:02;13.00;15.30
16881;DHT22;8557;52.068;5.198;2023-02-14T16:04:32;12.80;15.90
16881;DHT22;8557;52.068;5.198;2023-02-14T16:07:06;12.70;22.70
16881;DHT22;8557;52.068;5.198;2023-02-14T16:09:38;12.60;32.40
16881;DHT22;8557;52.068;5.198;2023-02-14T16:12:35;12.40;51.60
16881;DHT22;8557;52.068;5.198;2023-02-14T16:15:15;12.30;68.00
16881;DHT22;8557;52.068;5.198;2023-02-14T16:17:42;12.30;79.90
16881;DHT22;8557;52.068;5.198;2023-02-14T16:20:35;12.20;91.10
16881;DHT22;8557;52.068;5.198;2023-02-14T16:23:24;12.10;94.90
16881;DHT22;8557;52.068;5.198;2023-02-14T16:25:51;12.00;99.90
16881;DHT22;8557;52.068;5.198;2023-02-14T16:28:19;11.80;99.90
16881;DHT22;8557;52.068;5.198;2023-02-14T16:30:51;11.70;99.90
16881;DHT22;8557;52.068;5.198;2023-02-14T16:33:20;11.60;99.90
16881;DHT22;8557;52.068;5.198;2023-02-14T16:35:49;11.50;99.90